Time;durP1;ratioP1;P1;durP2;ratioP2;P2;SDS_P1;SDS_P2;PMS_P1;PMS_P2;Temp;Humidity;BMP_temperature;BMP_pressure;BME280_temperature;BME280_humidity;BME280_pressure;Samples;Min_cycle;Max_cycle;Signal;HPM_P1;HPM_P2
2024/01/04 00:00:31;;;;;;;3.03;0.70;;;8.40;86.00;;;7.44;85.69;96164.72;5054126;28;20973;-68
2024/01/04 00:02:59;;;;;;;2.83;0.57;;;8.40;85.90;;;7.34;86.46;96161.84;5041021;28;20453;-68
2024/01/04 00:05:27;;;;;;;3.63;0.90;;;8.40;85.80;;;7.49;85.49;96164.78;5042287;28;20558;-67
2024/01/04 00:07:55;;;;;;;3.07;0.50;;;8.40;85.50;;;7.48;85.14;96176.59;5040330;28;20562;-68
2024/01/04 00:10:22;;;;;;;2.70;0.97;;;8.40;85.40;;;7.58;83.40;96173.28;5034361;28;20963;-67
2024/01/04 00:12:51;;;;;;;1.93;0.53;;;8.40;84.90;;;7.66;83.72;96180.13;5036726;28;20500;-68
2024/01/04 00:15:19;;;;;;;1.43;0.73;;;8.50;84.80;;;7.60;82.65;96179.22;5037834;28;20461;-67
2024/01/04 00:17:47;;;;;;;0.80;0.70;;;8.50;84.20;;;7.55;82.73;96172.94;5031722;28;20470;-67
2024/01/04 00:20:14;;;;;;;4.23;0.90;;;8.50;83.90;;;7.71;81.61;96163.28;5042087;28;20457;-69
2024/01/04 00:22:47;;;;;;;3.00;0.70;;;8.60;83.60;;;7.64;81.73;96153.50;5037629;28;20529;-68
2024/01/04 00:25:15;;;;;;;2.30;0.53;;;8.60;83.60;;;7.70;80.57;96164.34;5038200;28;20545;-68
2024/01/04 00:27:42;;;;;;;3.30;0.83;;;8.60;82.70;;;7.68;80.04;96171.84;5038664;28;20450;-67
2024/01/04 00:30:10;;;;;;;0.90;0.77;;;8.70;82.60;;;7.78;79.32;96163.94;5038351;28;20564;-67
2024/01/04 00:32:38;;;;;;;2.30;0.67;;;8.70;82.30;;;7.74;79.51;96178.94;5039428;28;20462;-68
2024/01/04 00:35:06;;;;;;;4.93;1.10;;;8.70;82.10;;;7.76;79.56;96176.81;5038679;28;20565;-69
2024/01/04 00:37:34;;;;;;;2.23;1.23;;;8.70;82.10;;;7.81;79.31;96179.59;5037294;28;20786;-68
2024/01/04 00:40:03;;;;;;;2.07;0.80;;;8.70;82.10;;;7.72;80.35;96175.66;5038264;28;20998;-69
2024/01/04 00:42:30;;;;;;;2.00;1.00;;;8.70;82.30;;;7.72;80.40;96178.34;5040478;28;20517;-70
2024/01/04 00:44:59;;;;;;;4.50;1.40;;;8.70;82.30;;;7.70;80.36;96185.84;5048606;28;20484;-68
2024/01/04 00:47:26;;;;;;;1.53;0.90;;;8.70;82.60;;;7.68;81.25;96172.66;5033860;28;20462;-68
2024/01/04 00:49:53;;;;;;;3.17;0.63;;;8.60;82.80;;;7.56;82.39;96175.41;5035102;28;20898;-67
2024/01/04 00:52:20;;;;;;;3.37;0.60;;;8.60;83.00;;;7.48;82.95;96165.03;5038012;28;20462;-68
2024/01/04 00:54:47;;;;;;;2.30;0.47;;;8.50;83.30;;;7.49;83.41;96178.22;5040146;28;20531;-70
2024/01/04 00:57:16;;;;;;;5.07;0.67;;;8.50;83.50;;;7.34;84.28;96181.44;5037147;28;20453;-68
2024/01/04 00:59:43;;;;;;;3.30;0.60;;;8.40;83.80;;;7.35;85.45;96196.53;5048953;28;20966;-69
2024/01/04 01:02:10;;;;;;;3.60;0.53;;;8.30;84.20;;;7.36;85.36;96206.22;5042116;28;20532;-69
2024/01/04 01:04:38;;;;;;;1.03;0.50;;;8.30;84.40;;;7.25;86.42;96208.94;5035189;28;20524;-70
2024/01/04 01:07:07;;;;;;;1.00;0.40;;;8.30;84.80;;;7.18;86.68;96204.50;5038487;28;20468;-69
2024/01/04 01:09:38;;;;;;;1.40;0.50;;;8.20;85.30;;;7.08;87.81;96189.03;5033754;28;20454;-68
2024/01/04 01:12:07;;;;;;;2.30;0.50;;;8.20;85.60;;;7.28;87.59;96208.44;5030421;28;20986;-68
2024/01/04 01:14:36;;;;;;;1.20;0.50;;;8.20;85.80;;;7.14;89.19;96218.66;5034543;28;20454;-67
2024/01/04 01:17:04;;;;;;;1.00;0.90;;;8.10;86.20;;;7.07;89.81;96222.31;5034113;28;20461;-67
2024/01/04 01:19:31;;;;;;;6.30;1.10;;;8.00;87.00;;;7.08;90.33;96220.41;5050702;28;20457;-67
2024/01/04 01:21:58;;;;;;;2.97;0.50;;;8.00;87.00;;;7.00;90.74;96210.84;5037570;28;20559;-67
2024/01/04 01:24:25;;;;;;;2.63;0.87;;;7.90;87.20;;;6.99;91.99;96217.28;5042663;28;21079;-68
2024/01/04 01:26:52;;;;;;;1.47;0.50;;;8.00;88.10;;;6.52;92.36;96154.56;5036675;28;20472;-66
2024/01/04 01:29:20;;;;;;;1.13;0.70;;;7.90;88.50;;;6.44;92.34;96138.03;5036634;28;20458;-68
2024/01/04 01:31:51;;;;;;;0.60;0.43;;;7.90;88.90;;;6.91;92.66;96212.28;5033584;28;20454;-68
2024/01/04 01:34:18;;;;;;;1.67;0.60;;;7.90;89.10;;;6.85;93.20;96213.22;5035897;28;20465;-69
2024/01/04 01:36:46;;;;;;;0.70;0.50;;;7.80;89.40;;;6.86;94.00;96222.91;5039187;28;20548;-68
2024/01/04 01:39:14;;;;;;;1.93;0.77;;;7.80;90.00;;;6.82;93.61;96216.38;5037994;28;20556;-68
2024/01/04 01:41:41;;;;;;;2.60;0.60;;;7.80;89.90;;;6.76;94.15;96213.59;5041919;28;20461;-68
2024/01/04 01:44:08;;;;;;;2.73;0.60;;;7.80;90.20;;;6.71;94.86;96207.31;5038846;28;20481;-67
2024/01/04 01:46:36;;;;;;;2.73;0.83;;;7.70;90.50;;;6.69;94.45;96204.84;5037561;28;20450;-67
2024/01/04 01:49:05;;;;;;;1.40;0.50;;;7.70;90.40;;;6.82;92.97;96201.06;5038341;28;20458;-66
2024/01/04 01:51:32;;;;;;;0.93;0.77;;;7.70;89.60;;;6.81;92.06;96207.50;5038092;28;20464;-66
2024/01/04 01:54:00;;;;;;;1.80;0.50;;;7.80;89.00;;;6.83;92.08;96213.47;5040260;28;20982;-69
2024/01/04 01:56:28;;;;;;;1.43;0.60;;;7.80;88.90;;;6.82;91.01;96219.88;5033284;28;20473;-68
2024/01/04 01:58:57;;;;;;;0.80;0.30;;;7.80;88.20;;;6.95;89.96;96221.50;5044677;28;20469;-67
2024/01/04 02:01:26;;;;;;;1.70;0.50;;;7.90;87.80;;;6.94;91.13;96198.38;5023822;28;20450;-68
2024/01/04 02:03:55;;;;;;;1.30;0.40;;;7.90;88.20;;;6.89;90.74;96195.56;5044066;28;20454;-68
2024/01/04 02:06:24;;;;;;;1.30;0.73;;;7.90;87.70;;;6.87;91.46;96208.44;5018365;28;20444;-68
2024/01/04 02:08:51;;;;;;;2.90;0.60;;;7.90;88.10;;;6.86;91.34;96207.63;5039313;28;20447;-67
2024/01/04 02:11:18;;;;;;;1.43;0.60;;;7.80;88.10;;;6.94;90.35;96212.63;5033565;28;20466;-68
2024/01/04 02:13:45;;;;;;;3.60;0.60;;;7.90;88.00;;;6.98;90.13;96215.66;5035336;28;20524;-70
2024/01/04 02:16:13;;;;;;;5.50;0.73;;;7.90;87.90;;;6.90;90.82;96216.00;5037812;28;20456;-68
2024/01/04 02:18:42;;;;;;;1.43;0.60;;;7.90;87.70;;;6.57;89.77;96161.09;5029841;28;20454;-68
2024/01/04 02:21:09;;;;;;;5.03;0.80;;;7.90;87.50;;;6.91;92.36;96225.72;5036470;28;20464;-68
2024/01/04 02:23:38;;;;;;;0.90;0.57;;;7.90;88.50;;;6.87;92.77;96219.16;5042073;28;20519;-67
2024/01/04 02:26:06;;;;;;;2.50;0.60;;;7.80;89.00;;;6.77;92.87;96231.34;5037380;28;20478;-68
2024/01/04 02:28:33;;;;;;;3.43;0.70;;;7.70;89.20;;;6.33;94.03;96161.13;5048329;28;20449;-67
2024/01/04 02:31:00;;;;;;;2.80;0.60;;;7.70;89.90;;;6.70;94.86;96222.56;5039537;28;20458;-67
2024/01/04 02:33:27;;;;;;;1.43;0.73;;;7.70;90.30;;;6.74;93.83;96226.41;5038890;28;20466;-67
2024/01/04 02:35:54;;;;;;;1.93;0.53;;;7.70;90.10;;;6.75;94.08;96224.56;5044555;28;20457;-67
2024/01/04 02:38:23;;;;;;;2.13;0.47;;;7.70;90.30;;;6.66;94.51;96216.03;5039009;28;20519;-67
2024/01/04 02:40:53;;;;;;;4.17;0.90;;;7.70;90.40;;;6.73;94.33;96238.19;5044463;28;20458;-67
2024/01/04 02:43:22;;;;;;;0.70;0.50;;;7.70;90.30;;;6.73;93.87;96230.16;5037423;28;20874;-68
2024/01/04 02:45:49;;;;;;;2.13;0.60;;;7.70;90.00;;;6.72;93.95;96243.81;5042053;28;20474;-69
2024/01/04 02:48:17;;;;;;;1.07;0.37;;;7.70;90.10;;;6.72;93.32;96233.09;5051652;28;20470;-68
2024/01/04 02:50:45;;;;;;;0.60;0.40;;;7.70;89.60;;;6.77;93.08;96235.88;5059967;28;20528;-69
2024/01/04 02:53:12;;;;;;;2.13;0.70;;;7.70;89.70;;;6.76;93.92;96240.44;5044266;28;20458;-68
2024/01/04 02:55:40;;;;;;;2.17;0.60;;;7.70;89.90;;;6.75;94.32;96243.34;5026355;28;20449;-68
2024/01/04 02:58:09;;;;;;;1.00;0.40;;;7.70;90.30;;;6.63;95.34;96240.66;5057887;28;20446;-68
2024/01/04 03:00:36;;;;;;;2.20;0.40;;;7.70;90.40;;;6.61;95.45;96242.78;5057875;28;20466;-68
2024/01/04 03:03:05;;;;;;;1.67;0.20;;;7.60;90.50;;;6.54;96.38;96242.06;5039718;28;20462;-68
2024/01/04 03:05:33;;;;;;;2.60;0.50;;;7.50;91.00;;;6.55;97.43;96249.88;5046226;28;20484;-67
2024/01/04 03:08:03;;;;;;;3.67;0.90;;;7.50;91.60;;;6.50;97.85;96247.91;5046689;28;21002;-67
2024/01/04 03:10:30;;;;;;;2.30;0.40;;;7.50;91.80;;;6.02;97.55;96176.50;5039597;28;20462;-68
2024/01/04 03:12:58;;;;;;;2.07;0.70;;;7.40;92.10;;;6.45;98.24;96255.00;5044156;28;20454;-67
2024/01/04 03:15:28;;;;;;;3.10;0.60;;;7.40;92.00;;;6.48;98.35;96259.91;5038800;28;20470;-67
2024/01/04 03:17:56;;;;;;;1.13;0.40;;;7.40;92.10;;;6.43;98.65;96252.53;5035911;28;20466;-67
2024/01/04 03:20:23;;;;;;;1.60;0.80;;;7.40;92.50;;;6.36;98.81;96259.91;5021972;28;20508;-69
2024/01/04 03:22:52;;;;;;;2.77;0.40;;;7.40;92.30;;;6.38;98.82;96271.22;5044198;28;20446;-67
2024/01/04 03:25:19;;;;;;;6.07;0.73;;;7.40;92.40;;;6.38;99.07;96255.13;5053880;28;20477;-67
2024/01/04 03:27:47;;;;;;;1.57;0.50;;;7.40;92.50;;;6.34;100.00;96260.13;5045466;28;20465;-68
2024/01/04 03:30:15;;;;;;;1.10;0.60;;;7.40;93.20;;;6.30;100.00;96271.56;5039702;28;20462;-68
2024/01/04 03:32:44;;;;;;;5.67;0.67;;;7.30;93.60;;;6.26;100.00;96284.63;5033981;28;20468;-67
2024/01/04 03:35:11;;;;;;;0.40;0.30;;;7.20;94.20;;;6.18;100.00;96279.56;5040337;28;20455;-68
2024/01/04 03:37:42;;;;;;;3.90;0.50;;;7.20;94.20;;;6.28;100.00;96282.50;5035476;28;20472;-68
2024/01/04 03:40:10;;;;;;;0.77;0.50;;;7.20;94.30;;;6.28;100.00;96281.69;5042146;28;20465;-69
2024/01/04 03:42:37;;;;;;;1.23;0.40;;;7.30;94.70;;;6.20;100.00;96283.66;5035489;28;20465;-68
2024/01/04 03:45:07;;;;;;;2.60;0.87;;;7.20;94.90;;;6.23;100.00;96280.53;5034037;28;20470;-67
2024/01/04 03:47:34;;;;;;;1.50;0.40;;;7.20;94.90;;;6.23;100.00;96280.53;5033119;28;20462;-67
2024/01/04 03:50:05;;;;;;;1.80;0.50;;;7.20;94.90;;;6.30;100.00;96287.66;5044826;28;20527;-67
2024/01/04 03:52:32;;;;;;;0.83;0.50;;;7.20;94.60;;;6.27;100.00;96280.06;5036471;28;20457;-67
2024/01/04 03:55:02;;;;;;;3.23;0.53;;;7.20;95.00;;;6.28;100.00;96289.72;5035739;28;21612;-68
2024/01/04 03:57:31;;;;;;;0.90;0.40;;;7.20;94.70;;;6.21;100.00;96274.56;5031244;28;20954;-67
2024/01/04 04:00:01;;;;;;;0.87;0.40;;;7.20;94.80;;;6.34;100.00;96286.94;5036874;28;20564;-67
2024/01/04 04:02:31;;;;;;;1.37;0.60;;;7.30;94.90;;;5.93;100.00;96230.41;5037944;28;20454;-67
2024/01/04 04:04:59;;;;;;;5.27;0.80;;;7.30;94.10;;;6.30;100.00;96290.34;5041250;28;20504;-66
2024/01/04 04:07:28;;;;;;;2.10;0.53;;;7.30;93.80;;;6.31;100.00;96286.59;5030685;28;21030;-66
2024/01/04 04:09:57;;;;;;;1.33;0.33;;;7.30;93.90;;;6.31;100.00;96294.66;5040613;28;20462;-67
2024/01/04 04:12:24;;;;;;;1.63;0.67;;;7.30;93.80;;;6.34;100.00;96302.25;5035944;28;20467;-68
2024/01/04 04:14:52;;;;;;;1.90;0.50;;;7.30;93.90;;;6.30;100.00;96293.03;5042566;28;20462;-68
2024/01/04 04:17:24;;;;;;;2.13;0.80;;;7.30;93.40;;;6.36;100.00;96298.25;5023928;28;20498;-68
2024/01/04 04:19:51;;;;;;;0.93;0.50;;;7.30;93.60;;;6.38;99.49;96306.09;5037792;28;20546;-66
2024/01/04 04:22:19;;;;;;;0.93;0.43;;;7.30;93.10;;;6.36;100.00;96300.94;5035480;28;20955;-67
2024/01/04 04:24:48;;;;;;;2.43;0.33;;;7.40;93.00;;;6.44;98.67;96315.09;5040316;28;20520;-67
2024/01/04 04:27:15;;;;;;;2.40;0.70;;;7.40;92.50;;;6.47;97.94;96311.94;5039825;28;20814;-67
2024/01/04 04:29:42;;;;;;;1.53;0.70;;;7.40;91.80;;;6.44;98.62;96318.56;5038434;28;20515;-67
2024/01/04 04:32:10;;;;;;;1.07;0.40;;;7.40;92.10;;;6.49;97.10;96316.03;5039260;28;20466;-67
2024/01/04 04:34:37;;;;;;;1.63;0.60;;;7.50;91.40;;;6.49;97.87;96325.94;5036675;28;20458;-69
2024/01/04 04:37:07;;;;;;;1.60;0.43;;;7.50;91.90;;;6.45;97.61;96325.59;5030127;28;20469;-68
2024/01/04 04:39:34;;;;;;;2.00;0.47;;;7.50;91.50;;;6.49;97.67;96336.66;5037720;28;20493;-66
2024/01/04 04:42:03;;;;;;;1.03;0.53;;;7.50;91.80;;;6.40;96.79;96316.59;5039983;28;20472;-67
2024/01/04 04:51:53;;;;;;;2.63;0.60;;;7.50;91.20;;;6.42;96.71;96344.81;5052688;28;20451;-68
2024/01/04 04:54:21;;;;;;;0.90;0.40;;;7.50;91.10;;;6.42;96.73;96336.75;5046298;28;20841;-68
2024/01/04 04:56:48;;;;;;;1.67;0.40;;;7.50;91.30;;;6.48;97.41;96365.38;5039294;28;20445;-68
2024/01/04 04:59:17;;;;;;;1.73;0.40;;;7.50;91.30;;;6.42;96.28;96352.84;5036052;28;20453;-67
2024/01/04 05:01:45;;;;;;;1.37;0.40;;;7.50;91.00;;;6.48;95.34;96361.84;5033645;28;20465;-67
2024/01/04 05:04:12;;;;;;;1.53;0.60;;;7.50;90.60;;;6.47;94.25;96355.69;5039253;28;20476;-68
2024/01/04 05:06:39;;;;;;;1.57;0.50;;;7.50;90.40;;;6.45;93.41;96357.78;5042412;28;20484;-68
2024/01/04 05:09:07;;;;;;;0.57;0.50;;;7.50;90.00;;;6.13;93.18;96309.75;5035189;28;20444;-69
2024/01/04 05:11:34;;;;;;;0.60;0.40;;;7.50;89.80;;;6.47;93.61;96377.16;5034106;28;20462;-68
2024/01/04 05:14:03;;;;;;;3.70;0.30;;;7.50;89.80;;;6.50;94.02;96371.31;5040042;28;21000;-67
2024/01/04 05:16:31;;;;;;;1.53;0.40;;;7.50;90.30;;;6.45;94.85;96371.22;5030112;28;20499;-66
2024/01/04 05:18:59;;;;;;;0.70;0.30;;;7.50;90.30;;;6.38;96.42;96373.16;5034288;28;20479;-67
2024/01/04 05:21:32;;;;;;;0.40;0.30;;;7.40;90.80;;;6.39;96.85;96380.16;5037697;28;20545;-67
2024/01/04 05:23:59;;;;;;;0.67;0.30;;;7.40;91.20;;;6.36;97.21;96372.56;5040906;28;20457;-68
2024/01/04 05:26:27;;;;;;;0.60;0.40;;;7.30;91.60;;;6.28;97.80;96378.25;5038090;28;20566;-67
2024/01/04 05:28:54;;;;;;;2.97;0.40;;;7.30;91.70;;;6.26;97.82;96397.25;5037907;28;20479;-66
2024/01/04 05:31:21;;;;;;;0.50;0.30;;;7.30;91.80;;;6.29;98.31;96396.81;5037090;28;20457;-67
2024/01/04 05:33:50;;;;;;;1.23;0.40;;;7.30;92.00;;;6.30;98.60;96398.44;5054889;28;20454;-66
2024/01/04 05:36:17;;;;;;;0.90;0.30;;;7.30;92.20;;;6.23;99.44;96408.44;5034802;28;20461;-69
2024/01/04 05:38:44;;;;;;;0.50;0.40;;;7.20;92.40;;;6.23;98.09;96403.09;5037535;28;20559;-67
2024/01/04 05:41:12;;;;;;;1.17;0.40;;;7.30;92.00;;;6.28;98.31;96418.47;5045731;28;20461;-67
2024/01/04 05:43:39;;;;;;;0.73;0.33;;;7.30;91.90;;;6.36;97.46;96412.81;5045478;28;20458;-68
2024/01/04 05:46:07;;;;;;;0.40;0.30;;;7.30;91.70;;;6.32;97.88;96414.31;5044700;28;20513;-69
2024/01/04 05:48:36;;;;;;;0.80;0.30;;;7.30;92.00;;;6.32;97.87;96409.75;5044813;28;20446;-66
2024/01/04 05:51:05;;;;;;;2.30;0.60;;;7.30;92.00;;;6.41;97.12;96431.72;5043750;28;21028;-67
2024/01/04 05:53:33;;;;;;;1.97;0.50;;;7.40;91.50;;;6.44;97.71;96443.88;5044066;28;20457;-67
2024/01/04 05:56:00;;;;;;;0.50;0.40;;;7.40;91.70;;;6.43;98.26;96448.41;5044506;28;20454;-69
2024/01/04 05:58:27;;;;;;;2.20;0.57;;;7.40;92.00;;;6.40;97.63;96450.72;5043382;28;20467;-69
2024/01/04 06:00:54;;;;;;;0.50;0.50;;;7.40;91.70;;;6.47;98.02;96451.44;5033608;28;20473;-68
2024/01/04 06:03:21;;;;;;;0.60;0.40;;;7.40;92.00;;;6.48;97.71;96461.13;5035019;28;20462;-68
2024/01/04 06:05:49;;;;;;;0.90;0.50;;;7.50;91.70;;;6.52;97.49;96476.56;5019183;28;20513;-70
2024/01/04 06:08:21;;;;;;;0.60;0.33;;;7.50;91.60;;;6.57;96.10;96477.72;5052041;28;20450;-69
2024/01/04 06:10:48;;;;;;;0.43;0.30;;;7.50;91.00;;;6.58;96.96;96476.69;5036420;28;21004;-67
2024/01/04 06:13:16;;;;;;;0.50;0.40;;;7.60;91.20;;;6.55;95.88;96479.81;5033811;28;20493;-67
2024/01/04 06:15:45;;;;;;;1.20;0.50;;;7.60;91.00;;;6.09;95.38;96413.16;5030247;28;20489;-68
2024/01/04 06:18:12;;;;;;;1.07;0.30;;;7.60;90.80;;;6.66;94.78;96487.13;5039237;28;20485;-69
2024/01/04 06:20:40;;;;;;;1.37;0.43;;;7.60;90.60;;;6.60;95.19;96504.13;5039927;28;20456;-67
2024/01/04 06:23:08;;;;;;;1.50;0.60;;;7.60;90.60;;;6.65;94.88;96490.84;5041644;28;20971;-68
2024/01/04 06:25:38;;;;;;;0.40;0.30;;;7.60;90.50;;;6.65;94.52;96512.31;5041476;28;20474;-69
2024/01/04 06:28:06;;;;;;;1.43;0.50;;;7.60;90.30;;;6.27;93.28;96432.94;5040411;28;20958;-68
2024/01/04 06:30:35;;;;;;;1.40;0.80;;;7.70;90.20;;;6.62;94.06;96502.84;5032376;28;20471;-67
2024/01/04 06:33:05;;;;;;;0.40;0.40;;;7.60;90.30;;;6.63;94.80;96514.41;5041583;28;20498;-68
2024/01/04 06:35:32;;;;;;;0.70;0.50;;;7.60;90.50;;;6.64;94.99;96521.41;5033333;28;20517;-68
2024/01/04 06:37:59;;;;;;;1.13;0.83;;;7.60;90.50;;;6.67;94.92;96526.31;5054959;28;20458;-67
2024/01/04 06:40:27;;;;;;;1.90;0.50;;;7.60;90.60;;;6.64;95.34;96526.78;5040630;28;20458;-69
2024/01/04 06:42:56;;;;;;;0.60;0.30;;;7.60;90.60;;;6.69;94.05;96518.84;5040534;28;20507;-67
2024/01/04 06:45:23;;;;;;;0.90;0.53;;;7.70;90.70;;;6.66;95.05;96527.38;5029767;28;21002;-69
2024/01/04 06:47:51;;;;;;;0.40;0.40;;;7.60;90.60;;;6.69;94.47;96536.84;5042303;28;20454;-67
2024/01/04 06:50:19;;;;;;;0.57;0.40;;;7.70;90.40;;;6.51;94.03;96496.38;5038940;28;20459;-67
2024/01/04 06:52:46;;;;;;;1.37;0.50;;;7.70;90.40;;;6.74;94.44;96548.50;5029105;28;20941;-68
2024/01/04 06:55:14;;;;;;;0.70;0.50;;;7.70;90.40;;;6.74;93.67;96547.72;5032325;28;20462;-68
2024/01/04 06:57:41;;;;;;;1.40;0.40;;;7.70;90.10;;;6.80;93.11;96542.25;5030254;28;20955;-68
2024/01/04 07:00:11;;;;;;;0.67;0.60;;;7.80;90.10;;;6.80;92.53;96549.47;5039234;28;20817;-67
2024/01/04 07:02:40;;;;;;;0.53;0.37;;;7.70;90.00;;;6.86;91.53;96556.63;5035420;28;20459;-67
2024/01/04 07:05:11;;;;;;;1.77;0.50;;;7.80;89.40;;;6.86;92.20;96556.63;5036357;28;20459;-70
2024/01/04 07:07:39;;;;;;;0.70;0.40;;;7.80;89.20;;;6.78;93.49;96552.41;5047131;28;20479;-67
2024/01/04 07:10:09;;;;;;;1.73;0.70;;;7.80;89.80;;;6.67;94.49;96555.84;5032817;28;20838;-68
2024/01/04 07:12:37;;;;;;;1.23;0.53;;;7.70;90.10;;;6.67;95.44;96563.91;5036226;28;20464;-68
2024/01/04 07:15:06;;;;;;;0.50;0.40;;;7.60;90.50;;;6.62;96.76;96561.09;5048230;28;20533;-67
2024/01/04 07:17:34;;;;;;;2.10;0.53;;;7.60;91.20;;;6.13;96.85;96500.16;5037117;28;20827;-68
2024/01/04 07:20:04;;;;;;;3.27;0.77;;;7.60;91.20;;;6.52;98.87;96565.09;5041523;28;20623;-69
2024/01/04 07:22:32;;;;;;;1.80;0.70;;;7.50;92.20;;;6.50;99.59;96569.06;5040494;28;20450;-69
2024/01/04 07:24:59;;;;;;;0.70;0.60;;;7.50;92.60;;;6.54;98.44;96569.44;5038702;28;20455;-67
2024/01/04 07:27:27;;;;;;;2.63;0.90;;;7.50;92.30;;;6.55;98.28;96576.44;5034970;28;20481;-67
2024/01/04 07:29:55;;;;;;;2.00;0.97;;;7.50;92.00;;;6.56;98.69;96580.75;5045866;28;20458;-68
2024/01/04 07:32:23;;;;;;;0.87;0.67;;;7.50;92.40;;;6.60;97.67;96579.28;5023844;28;20464;-68
2024/01/04 07:34:52;;;;;;;1.03;0.60;;;7.50;92.10;;;6.58;97.71;96586.72;5039031;28;20466;-69
2024/01/04 07:37:19;;;;;;;1.50;0.80;;;7.50;92.10;;;6.58;97.33;96592.91;5035498;28;20507;-69
2024/01/04 07:39:47;;;;;;;1.63;0.97;;;7.50;91.90;;;6.56;96.52;96568.16;5038673;28;20447;-68
2024/01/04 07:42:14;;;;;;;3.13;0.67;;;7.60;91.50;;;6.68;96.35;96587.00;5035834;28;20464;-68
2024/01/04 07:44:41;;;;;;;1.00;0.50;;;7.60;91.20;;;6.60;95.63;96574.72;5042804;28;20467;-68
2024/01/04 07:47:09;;;;;;;1.50;0.70;;;7.60;91.10;;;6.70;96.10;96568.81;5038998;28;20625;-69
2024/01/04 07:49:36;;;;;;;0.70;0.60;;;7.70;91.10;;;6.68;94.93;96581.63;5041436;28;20466;-69
2024/01/04 07:52:06;;;;;;;1.03;0.57;;;7.70;90.80;;;6.77;93.06;96596.41;5043246;28;20450;-69
2024/01/04 07:54:35;;;;;;;3.10;1.13;;;7.70;90.10;;;6.88;91.89;96597.50;5039590;28;20454;-68
2024/01/04 07:57:04;;;;;;;1.70;0.50;;;7.80;89.30;;;6.90;91.98;96594.56;5037755;28;20456;-69
2024/01/04 07:59:31;;;;;;;1.30;0.93;;;7.80;89.10;;;6.89;91.63;96603.66;5057655;28;20447;-69
2024/01/04 08:01:58;;;;;;;1.50;0.70;;;7.90;88.90;;;6.94;91.62;96612.69;5041694;28;20538;-70
2024/01/04 08:04:26;;;;;;;1.27;0.57;;;7.90;88.80;;;6.95;90.61;96624.25;5041994;28;20491;-69
2024/01/04 08:06:53;;;;;;;0.40;0.40;;;7.90;88.30;;;6.95;90.77;96621.59;5038928;28;20978;-68
2024/01/04 08:09:23;;;;;;;0.70;0.70;;;7.90;88.20;;;7.16;93.60;96616.75;5040525;28;20458;-69
2024/01/04 08:11:50;;;;;;;1.97;0.40;;;8.00;90.10;;;7.14;91.49;96621.53;5039481;28;20455;-69
2024/01/04 08:14:17;;;;;;;0.80;0.63;;;8.00;88.80;;;7.20;93.45;96625.97;5046119;28;20464;-70
2024/01/04 08:16:45;;;;;;;0.90;0.50;;;8.10;89.50;;;7.22;92.01;96629.28;5040696;28;20465;-71
2024/01/04 08:19:13;;;;;;;0.73;0.60;;;8.10;89.50;;;7.10;91.95;96639.97;5048632;28;20466;-72
2024/01/04 08:21:41;;;;;;;1.90;0.70;;;8.10;89.10;;;7.08;90.90;96629.47;5039300;28;20441;-70
2024/01/04 08:24:09;;;;;;;0.90;0.90;;;8.00;88.90;;;7.29;91.27;96635.38;5039294;28;20871;-71
2024/01/04 08:26:42;;;;;;;0.93;0.47;;;8.20;89.00;;;7.24;90.05;96643.31;5041389;28;20505;-69
2024/01/04 08:29:09;;;;;;;0.90;0.50;;;8.20;88.00;;;7.19;89.12;96645.84;5038940;28;20545;-70
2024/01/04 08:31:37;;;;;;;1.40;0.80;;;8.20;87.50;;;7.16;90.29;96651.66;5042165;28;20482;-72
2024/01/04 08:34:04;;;;;;;2.20;1.00;;;8.10;87.70;;;7.33;90.55;96658.03;5043655;28;20466;-70
2024/01/04 08:36:32;;;;;;;1.93;0.80;;;8.20;88.50;;;7.19;90.05;96645.84;5043139;28;20451;-71
2024/01/04 08:38:59;;;;;;;1.97;0.90;;;8.20;87.90;;;7.26;89.83;96665.38;5031726;28;20809;-70
2024/01/04 08:41:27;;;;;;;1.90;0.70;;;8.20;88.00;;;7.40;89.37;96655.25;5046042;28;20468;-71
2024/01/04 08:43:56;;;;;;;1.10;0.70;;;8.20;88.00;;;7.39;89.77;96655.50;5044183;28;20465;-69
2024/01/04 08:46:23;;;;;;;1.63;0.77;;;8.30;87.90;;;7.33;88.54;96660.72;5037945;28;20479;-70
2024/01/04 08:48:50;;;;;;;0.73;0.53;;;8.30;87.30;;;7.29;88.33;96656.06;5040318;28;20932;-70
2024/01/04 08:51:17;;;;;;;0.90;0.50;;;8.20;87.10;;;7.33;88.24;96655.34;5052763;28;20460;-70
2024/01/04 08:53:45;;;;;;;0.53;0.50;;;8.20;87.00;;;7.34;87.70;96665.06;5046947;28;20447;-72
2024/01/04 08:56:14;;;;;;;0.70;0.47;;;8.20;86.70;;;7.35;87.08;96666.72;5054756;28;20449;-70
2024/01/04 08:58:41;;;;;;;1.40;0.53;;;8.30;86.60;;;7.35;87.16;96672.09;5039310;28;20466;-70
2024/01/04 09:01:09;;;;;;;2.03;0.50;;;8.30;86.30;;;7.45;87.09;96670.72;5037001;28;20459;-71
2024/01/04 09:03:37;;;;;;;1.07;0.50;;;8.30;86.80;;;7.34;86.79;96673.13;5038743;28;20521;-69
2024/01/04 09:06:07;;;;;;;1.70;0.40;;;8.30;86.00;;;7.35;86.82;96688.22;5033981;28;20989;-73
2024/01/04 09:08:35;;;;;;;0.50;0.40;;;8.30;86.20;;;7.30;87.25;96689.94;5043712;28;20551;-69
2024/01/04 09:11:03;;;;;;;0.67;0.43;;;8.30;86.20;;;7.17;86.46;96686.38;5045790;28;20458;-70
2024/01/04 09:13:30;;;;;;;0.60;0.37;;;8.20;85.70;;;7.19;88.00;96694.19;5041286;28;20931;-70
2024/01/04 09:15:59;;;;;;;0.97;0.50;;;8.20;86.20;;;7.13;88.16;96695.09;5042497;28;20478;-69
2024/01/04 09:18:27;;;;;;;1.03;0.47;;;8.10;86.50;;;7.06;88.67;96698.72;5033006;28;20485;-70
2024/01/04 09:20:54;;;;;;;0.50;0.30;;;8.10;86.40;;;7.08;89.36;96704.66;5038319;28;20462;-70
2024/01/04 09:23:22;;;;;;;1.10;0.40;;;8.00;86.90;;;7.06;89.76;96709.44;5044521;28;20466;-70
2024/01/04 09:25:49;;;;;;;1.57;0.50;;;8.00;87.20;;;7.05;89.69;96715.88;5041919;28;20468;-69
2024/01/04 09:28:18;;;;;;;1.80;0.57;;;8.00;87.30;;;7.05;90.54;96723.94;5038892;28;20483;-70
2024/01/04 09:30:45;;;;;;;1.17;0.50;;;8.00;87.70;;;7.06;90.75;96722.03;5037205;28;20459;-69
2024/01/04 09:33:15;;;;;;;2.50;0.60;;;8.00;87.70;;;7.03;91.32;96727.88;5038258;28;20455;-70
2024/01/04 09:35:43;;;;;;;1.30;0.50;;;8.00;87.80;;;6.97;91.26;96737.63;5040065;28;20475;-69
2024/01/04 09:38:19;;;;;;;0.60;0.40;;;8.00;88.10;;;6.93;92.09;96717.66;5042035;28;20454;-71
2024/01/04 09:40:46;;;;;;;1.53;0.60;;;8.00;88.60;;;6.93;92.30;96737.25;5040322;28;20468;-70
2024/01/04 09:43:15;;;;;;;2.73;0.60;;;8.00;88.60;;;6.72;95.59;96743.88;5044853;28;20457;-70
2024/01/04 09:45:45;;;;;;;2.00;0.60;;;7.80;90.30;;;6.62;97.63;96743.59;5044155;28;20463;-70
2024/01/04 09:48:17;;;;;;;1.60;0.50;;;7.70;91.50;;;6.48;98.11;96751.75;5036301;28;20563;-70
2024/01/04 09:50:46;;;;;;;0.70;0.40;;;7.60;91.80;;;6.43;97.22;96761.50;5041416;28;20462;-70
2024/01/04 09:53:14;;;;;;;0.70;0.40;;;7.50;91.50;;;6.40;99.53;96748.53;5042526;28;20464;-70
2024/01/04 09:55:42;;;;;;;1.90;0.50;;;7.50;92.50;;;6.32;100.00;96760.34;5053154;28;20873;-70
2024/01/04 09:58:10;;;;;;;1.43;0.87;;;7.40;93.10;;;6.39;100.00;96763.78;5036127;28;20449;-73
2024/01/04 10:00:38;;;;;;;1.33;0.60;;;7.40;94.30;;;6.33;100.00;96762.00;5035828;28;20470;-73
2024/01/04 10:03:12;;;;;;;3.03;0.50;;;7.30;94.60;;;6.32;100.00;96768.41;5033798;28;20462;-70
2024/01/04 10:05:42;;;;;;;1.70;0.67;;;7.30;95.20;;;6.27;100.00;96773.59;5034432;28;20530;-71
2024/01/04 10:08:29;;;;;;;4.27;0.80;;;7.30;94.90;;;6.26;100.00;96780.00;5031412;28;20536;-69
2024/01/04 10:11:02;;;;;;;0.70;0.50;;;7.30;95.30;;;6.17;100.00;96791.00;5042029;28;20638;-70
2024/01/04 10:13:30;;;;;;;0.50;0.37;;;7.20;95.30;;;6.12;100.00;96798.88;5037506;28;20463;-70
2024/01/04 10:15:59;;;;;;;0.80;0.53;;;7.20;95.30;;;5.66;100.00;96723.84;5042160;28;20450;-70
2024/01/04 10:18:29;;;;;;;1.53;0.80;;;7.10;95.80;;;6.08;100.00;96800.34;5036711;28;20450;-70
2024/01/04 10:21:04;;;;;;;2.10;0.70;;;7.10;96.30;;;5.86;100.00;96784.56;5042743;28;20464;-70
2024/01/04 10:23:34;;;;;;;1.77;0.40;;;7.00;93.60;;;5.94;100.00;96797.72;5053203;28;20865;-69
2024/01/04 10:26:09;;;;;;;1.80;0.50;;;7.00;94.20;;;5.92;98.86;96788.25;5041120;28;20465;-70
2024/01/04 10:28:38;;;;;;;1.40;0.53;;;7.00;92.10;;;5.95;99.88;96791.31;5031147;28;20486;-70
2024/01/04 10:31:07;;;;;;;1.00;0.50;;;7.00;92.60;;;5.89;100.00;96778.78;5042058;28;20450;-71
2024/01/04 10:33:35;;;;;;;2.50;0.80;;;7.00;92.90;;;5.92;100.00;96801.66;5036514;28;20449;-72
2024/01/04 10:36:10;;;;;;;1.83;0.83;;;7.00;92.90;;;5.60;100.00;96745.31;5050506;28;21117;-72
2024/01/04 10:38:39;;;;;;;1.17;0.60;;;7.00;93.30;;;6.02;100.00;96802.03;5034961;28;20456;-70
2024/01/04 10:41:06;;;;;;;2.53;0.80;;;7.00;93.80;;;6.21;100.00;96808.31;5035994;28;20507;-71
2024/01/04 10:43:34;;;;;;;1.87;0.80;;;7.10;93.90;;;6.23;100.00;96808.91;5053716;28;21238;-71